Time;durP1;ratioP1;P1;durP2;ratioP2;P2;SDS_P1;SDS_P2;PMS_P1;PMS_P2;Temp;Humidity;BMP_temperature;BMP_pressure;BME280_temperature;BME280_humidity;BME280_pressure;Samples;Min_cycle;Max_cycle;Signal;HPM_P1;HPM_P2
2022/04/10 00:03:51;;;;;;;2.00;0.90;;;;;;;0.46;89.87;99626.56;8287487;28;20081;-74
2022/04/10 00:07:52;;;;;;;1.42;0.90;;;;;;;0.46;90.37;99613.78;8305699;28;20080;-74
2022/04/10 00:11:54;;;;;;;1.17;0.90;;;;;;;0.40;90.06;99623.78;8298933;28;20086;-74
2022/04/10 00:15:55;;;;;;;2.20;1.37;;;;;;;0.40;90.25;99614.44;8299069;28;20072;-74
2022/04/10 00:19:57;;;;;;;1.92;1.40;;;;;;;0.42;90.44;99610.25;8299567;28;20211;-74
2022/04/10 00:23:59;;;;;;;2.05;1.40;;;;;;;0.36;89.77;99610.00;8310430;28;20072;-74
2022/04/10 00:28:01;;;;;;;2.10;1.50;;;;;;;0.34;90.38;99615.84;8283013;28;20161;-74
2022/04/10 00:32:03;;;;;;;1.65;1.55;;;;;;;0.35;90.29;99626.13;8268120;28;20058;-74
2022/04/10 00:36:05;;;;;;;2.00;1.80;;;;;;;0.31;90.27;99629.38;8284025;28;20076;-74
2022/04/10 00:40:08;;;;;;;1.50;1.38;;;;;;;0.29;90.38;99631.00;8303631;28;20341;-74
2022/04/10 00:44:11;;;;;;;3.40;1.50;;;;;;;0.23;90.47;99634.19;8303225;28;20067;-74
2022/04/10 00:48:12;;;;;;;1.20;1.10;;;;;;;0.18;90.45;99625.47;8300231;28;20152;-74
2022/04/10 00:52:14;;;;;;;1.83;1.20;;;;;;;0.19;90.47;99639.09;8300655;28;20468;-74
2022/04/10 00:56:16;;;;;;;2.25;1.38;;;;;;;0.14;90.40;99641.44;8284549;28;20066;-74
2022/04/10 01:00:17;;;;;;;1.73;1.00;;;;;;;0.09;90.24;99635.28;8302707;28;20060;-75
2022/04/10 01:04:19;;;;;;;1.70;1.10;;;;;;;0.05;90.71;99637.66;8306840;28;20705;-75
2022/04/10 01:08:21;;;;;;;1.23;1.13;;;;;;;0.04;90.52;99643.59;8298212;28;20152;-74
2022/04/10 01:12:23;;;;;;;1.50;0.97;;;;;;;0.00;90.43;99647.69;8303801;28;20385;-74
2022/04/10 01:16:25;;;;;;;2.00;1.08;;;;;;;-0.08;90.51;99652.47;8289985;28;20148;-74
2022/04/10 01:20:26;;;;;;;2.23;1.50;;;;;;;-0.13;90.61;99648.84;8284304;28;20052;-74
2022/04/10 01:24:28;;;;;;;3.03;1.43;;;;;;;-0.14;90.44;99647.13;8289533;28;20367;-73
2022/04/10 01:28:30;;;;;;;1.53;1.43;;;;;;;-0.13;90.83;99648.00;8299576;28;20421;-73
2022/04/10 01:32:31;;;;;;;1.70;1.60;;;;;;;-0.16;90.67;99648.72;8287018;28;20140;-74
2022/04/10 01:36:34;;;;;;;4.43;1.17;;;;;;;-0.12;90.62;99644.63;8297672;28;20116;-74
2022/04/10 01:40:36;;;;;;;2.13;1.57;;;;;;;-0.07;91.10;99641.44;8298155;28;20311;-74
2022/04/10 01:44:43;;;;;;;1.97;1.40;;;;;;;-0.02;91.40;99642.50;8296570;28;20056;-74
2022/04/10 01:48:46;;;;;;;1.37;1.23;;;;;;;-0.01;91.27;99639.13;8295889;28;20060;-74
2022/04/10 01:52:47;;;;;;;1.77;1.52;;;;;;;-0.02;91.18;99649.28;8284083;28;20044;-74
2022/04/10 01:56:49;;;;;;;2.93;1.37;;;;;;;0.04;92.15;99651.25;8293624;28;20050;-74
2022/04/10 02:00:50;;;;;;;2.40;1.70;;;;;;;0.08;92.09;99646.31;8292784;28;20080;-74
2022/04/10 02:04:53;;;;;;;2.80;1.63;;;;;;;0.06;91.45;99653.03;8287449;28;20049;-74
2022/04/10 02:08:54;;;;;;;3.73;1.80;;;;;;;0.08;91.91;99648.88;8294883;28;20505;-74
2022/04/10 02:12:55;;;;;;;2.70;1.93;;;;;;;0.15;91.92;99645.75;8287676;28;20041;-74
2022/04/10 02:16:57;;;;;;;2.83;1.57;;;;;;;0.21;92.34;99643.47;8278569;28;20058;-74
2022/04/10 02:20:59;;;;;;;2.60;1.93;;;;;;;0.24;92.16;99638.47;8310460;28;20045;-74
2022/04/10 02:25:00;;;;;;;2.70;2.03;;;;;;;0.26;92.24;99644.50;8305826;28;20137;-74
2022/04/10 02:29:02;;;;;;;2.77;1.87;;;;;;;0.29;92.58;99644.63;8314667;28;20088;-74
2022/04/10 02:33:03;;;;;;;4.07;2.20;;;;;;;0.32;92.22;99651.53;8283286;28;20050;-74
2022/04/10 02:37:06;;;;;;;3.33;1.77;;;;;;;0.29;92.06;99651.41;8291939;28;20050;-74
2022/04/10 02:41:07;;;;;;;2.30;1.80;;;;;;;0.34;91.73;99652.47;8288744;28;20848;-74
2022/04/10 02:45:09;;;;;;;2.50;1.80;;;;;;;0.37;91.84;99657.72;8299424;28;20117;-74
2022/04/10 02:49:11;;;;;;;4.05;1.90;;;;;;;0.40;92.52;99660.41;8306680;28;20057;-74
2022/04/10 02:53:13;;;;;;;3.20;2.13;;;;;;;0.43;92.52;99663.06;8282322;28;20261;-74
2022/04/10 02:57:14;;;;;;;1.87;1.70;;;;;;;0.47;91.93;99669.16;8304380;28;20456;-74
2022/04/10 03:01:16;;;;;;;4.13;2.17;;;;;;;0.47;92.45;99669.16;8301331;28;20057;-74
2022/04/10 03:05:18;;;;;;;1.60;1.50;;;;;;;0.49;92.48;99668.41;8288031;28;20382;-74
2022/04/10 03:09:19;;;;;;;3.87;2.10;;;;;;;0.55;92.92;99665.25;8271962;28;20050;-74
2022/04/10 03:13:20;;;;;;;2.30;1.70;;;;;;;0.58;92.62;99663.69;8292379;28;20136;-74
2022/04/10 03:17:26;;;;;;;2.00;1.60;;;;;;;0.62;92.85;99667.22;8288057;28;20459;-73
2022/04/10 03:21:27;;;;;;;1.93;1.60;;;;;;;0.60;92.71;99662.06;8299135;28;20607;-73
2022/04/10 03:25:29;;;;;;;2.00;1.70;;;;;;;0.57;92.56;99655.97;8299037;28;20041;-73
2022/04/10 03:29:30;;;;;;;4.63;2.03;;;;;;;0.59;93.13;99667.97;8300989;28;20517;-73
2022/04/10 03:33:31;;;;;;;3.17;1.73;;;;;;;0.67;92.95;99664.84;8281475;28;20041;-73
2022/04/10 03:37:33;;;;;;;2.83;1.63;;;;;;;0.71;92.29;99674.38;8297722;28;20046;-73
2022/04/10 03:41:35;;;;;;;2.13;1.47;;;;;;;0.70;92.11;99672.63;8296741;28;20457;-74
2022/04/10 03:45:37;;;;;;;3.17;1.67;;;;;;;0.68;92.26;99677.66;8297055;28;20124;-72
2022/04/10 03:49:38;;;;;;;3.58;1.88;;;;;;;0.66;91.64;99679.31;8303552;28;20038;-74
2022/04/10 03:53:40;;;;;;;1.67;1.43;;;;;;;0.67;92.08;99675.06;8297846;28;20057;-73
2022/04/10 03:57:41;;;;;;;2.97;1.73;;;;;;;0.68;92.10;99677.66;8281683;28;20067;-74
2022/04/10 04:01:43;;;;;;;2.90;1.80;;;;;;;0.73;92.62;99675.31;8280302;28;20077;-74
2022/04/10 04:05:44;;;;;;;2.53;1.60;;;;;;;0.75;92.23;99678.81;8293556;28;20083;-74
2022/04/10 04:09:46;;;;;;;3.13;1.63;;;;;;;0.76;92.62;99672.88;8281683;28;20077;-74
2022/04/10 04:13:47;;;;;;;2.27;1.50;;;;;;;0.74;92.44;99680.50;8276418;28;20068;-74
2022/04/10 04:17:49;;;;;;;3.90;1.53;;;;;;;0.69;92.30;99681.09;8282848;28;20108;-73
2022/04/10 04:21:50;;;;;;;2.67;1.43;;;;;;;0.68;92.24;99682.78;8286877;28;20431;-73
2022/04/10 04:25:52;;;;;;;3.93;1.60;;;;;;;0.64;92.25;99683.47;8282935;28;20482;-73
2022/04/10 04:29:53;;;;;;;3.33;1.73;;;;;;;0.61;91.96;99698.69;8255409;28;20157;-73
2022/04/10 04:33:55;;;;;;;6.50;2.10;;;;;;;0.55;91.98;99701.88;8252627;28;20046;-73
2022/04/10 04:37:57;;;;;;;3.23;2.30;;;;;;;0.48;91.89;99709.22;8266603;28;20041;-73
2022/04/10 04:42:02;;;;;;;2.30;2.13;;;;;;;0.39;91.33;99712.28;8261226;28;20442;-73
2022/04/10 04:46:03;;;;;;;2.27;1.93;;;;;;;0.34;91.88;99721.41;8244175;28;20057;-73
2022/04/10 04:50:06;;;;;;;1.90;1.80;;;;;;;0.27;91.37;99724.53;8259656;28;20073;-73
2022/04/10 04:54:08;;;;;;;2.77;2.30;;;;;;;0.26;91.88;99722.81;8262923;28;20037;-73
2022/04/10 04:58:09;;;;;;;2.80;1.87;;;;;;;0.32;92.06;99722.16;8245172;28;20046;-73
2022/04/10 05:02:11;;;;;;;3.00;1.97;;;;;;;0.38;92.30;99720.75;8261965;28;20181;-73
2022/04/10 05:06:13;;;;;;;1.70;1.57;;;;;;;0.35;92.00;99718.06;8258928;28;20042;-73
2022/04/10 05:10:14;;;;;;;1.57;1.40;;;;;;;0.43;92.77;99726.06;8274240;28;20081;-73
2022/04/10 05:14:15;;;;;;;2.50;1.73;;;;;;;0.48;92.45;99732.22;8260217;28;20070;-73
2022/04/10 05:18:19;;;;;;;2.17;1.67;;;;;;;0.48;92.38;99738.19;8267625;28;20074;-73
2022/04/10 05:22:21;;;;;;;2.27;1.83;;;;;;;0.50;92.07;99739.13;8271880;28;20049;-74
2022/04/10 05:26:22;;;;;;;2.60;1.58;;;;;;;0.60;93.09;99750.59;8258026;28;21493;-73
2022/04/10 05:30:24;;;;;;;2.23;1.70;;;;;;;0.65;92.91;99743.13;8250716;28;20667;-73
2022/04/10 05:34:25;;;;;;;1.57;1.47;;;;;;;0.69;93.04;99752.66;8273080;28;20046;-73
2022/04/10 05:38:27;;;;;;;2.80;2.00;;;;;;;0.70;93.30;99755.25;8239243;28;20120;-73
2022/04/10 05:42:29;;;;;;;2.77;1.50;;;;;;;0.76;93.39;99749.53;8271511;28;20046;-73
2022/04/10 05:46:30;;;;;;;3.10;1.30;;;;;;;0.85;93.36;99755.88;8256459;28;20078;-73
2022/04/10 05:50:32;;;;;;;1.43;1.33;;;;;;;0.93;93.23;99750.22;8244073;28;20050;-73
2022/04/10 05:54:33;;;;;;;2.90;1.77;;;;;;;1.03;93.65;99758.28;8257076;28;20371;-73
2022/04/10 05:58:35;;;;;;;4.47;1.67;;;;;;;1.17;93.57;99769.06;8268802;28;20150;-73
2022/04/10 06:02:37;;;;;;;2.20;2.00;;;;;;;1.13;92.78;99762.09;8239526;28;20092;-73
2022/04/10 06:06:38;;;;;;;5.40;2.33;;;;;;;1.09;93.23;99781.56;8275507;28;20049;-73
2022/04/10 06:10:40;;;;;;;2.47;1.90;;;;;;;1.23;93.17;99783.75;8273209;28;20060;-73
2022/04/10 06:14:42;;;;;;;2.77;2.23;;;;;;;1.39;92.98;99774.19;8258275;28;20346;-73
2022/04/10 06:18:43;;;;;;;2.67;2.37;;;;;;;1.55;93.00;99778.19;8253613;28;20057;-72
2022/04/10 06:22:45;;;;;;;3.33;2.63;;;;;;;1.70;92.72;99794.13;8242516;28;20042;-73
2022/04/10 06:26:49;;;;;;;3.47;3.03;;;;;;;1.84;92.54;99799.78;8266733;28;20132;-73
2022/04/10 06:30:50;;;;;;;2.47;2.27;;;;;;;1.96;91.81;99797.63;8253564;28;20073;-73
2022/04/10 06:34:52;;;;;;;3.00;2.67;;;;;;;2.00;91.43;99793.53;8256529;28;20089;-74
2022/04/10 06:38:54;;;;;;;3.50;2.37;;;;;;;2.13;90.98;99800.81;8255660;28;20129;-74
2022/04/10 06:42:55;;;;;;;3.20;2.90;;;;;;;2.21;90.84;99793.41;8269819;28;20116;-74
2022/04/10 06:46:57;;;;;;;3.20;2.70;;;;;;;2.36;90.82;99802.50;8251649;28;20145;-74
2022/04/10 06:50:58;;;;;;;3.40;2.37;;;;;;;2.54;90.34;99809.09;8267877;28;20084;-74
2022/04/10 06:55:00;;;;;;;4.33;2.53;;;;;;;2.73;89.72;99809.75;8267177;28;20050;-74
2022/04/10 06:59:02;;;;;;;3.47;3.10;;;;;;;2.91;89.64;99808.63;8269795;28;20080;-71
2022/04/10 07:03:03;;;;;;;3.17;2.40;;;;;;;3.06;88.96;99811.69;8243595;28;20083;-72
2022/04/10 07:07:05;;;;;;;3.43;2.20;;;;;;;3.40;88.43;99805.03;8268184;28;20046;-73
2022/04/10 07:11:06;;;;;;;3.00;2.20;;;;;;;3.99;87.44;99804.25;8253175;28;20046;-73
2022/04/10 07:15:08;;;;;;;4.00;2.50;;;;;;;4.63;86.01;99803.41;8258681;28;20074;-74
2022/04/10 07:19:09;;;;;;;2.63;2.07;;;;;;;4.79;84.39;99805.53;8266442;28;20061;-74
2022/04/10 07:27:31;;;;;;;4.40;2.20;;;;;;;6.04;80.57;99807.56;8267168;28;20089;-75
2022/04/10 07:31:32;;;;;;;5.30;2.47;;;;;;;6.50;77.84;99811.03;8260936;28;20058;-76
2022/04/10 07:35:34;;;;;;;10.67;5.83;;;;;;;6.71;76.53;99808.84;8267661;28;21576;-76
2022/04/10 07:39:35;;;;;;;4.20;3.70;;;;;;;7.10;75.42;99813.81;8252414;28;20050;-76
2022/04/10 07:43:37;;;;;;;3.50;3.20;;;;;;;7.15;73.98;99819.91;8244667;28;20034;-75
2022/04/10 07:47:39;;;;;;;2.80;1.90;;;;;;;7.00;72.78;99821.38;8244043;28;20057;-76
2022/04/10 07:51:40;;;;;;;2.00;1.90;;;;;;;6.90;73.09;99830.69;8260014;28;20066;-75
2022/04/10 07:55:41;;;;;;;3.27;1.30;;;;;;;6.78;72.37;99831.31;8254178;28;20113;-76
2022/04/10 07:59:43;;;;;;;1.67;1.47;;;;;;;6.69;71.99;99832.88;8250771;28;20085;-75
2022/04/10 08:03:51;;;;;;;1.50;1.40;;;;;;;6.88;72.83;99833.25;8250502;28;20109;-75
2022/04/10 08:07:53;;;;;;;1.63;1.23;;;;;;;7.05;71.10;99822.34;8256454;28;20072;-76
2022/04/10 08:11:55;;;;;;;1.20;1.02;;;;;;;7.75;70.66;99821.69;8255133;28;20422;-76
2022/04/10 08:15:57;;;;;;;1.27;1.17;;;;;;;8.05;69.03;99826.38;8240694;28;20053;-75
2022/04/10 08:19:59;;;;;;;1.17;0.93;;;;;;;8.57;68.32;99821.84;8251617;28;20046;-76
2022/04/10 08:24:01;;;;;;;1.02;0.95;;;;;;;9.00;65.49;99830.06;8256237;28;20049;-76
2022/04/10 08:28:03;;;;;;;3.80;0.85;;;;;;;9.41;63.85;99830.38;8267738;28;20069;-76
2022/04/10 08:32:05;;;;;;;2.77;0.90;;;;;;;9.82;62.44;99846.19;8246095;28;20082;-76
2022/04/10 08:36:06;;;;;;;1.55;0.80;;;;;;;10.33;61.25;99849.06;8239450;28;20064;-76
2022/04/10 08:40:08;;;;;;;2.13;0.90;;;;;;;10.74;59.57;99855.25;8268796;28;20041;-76
2022/04/10 08:44:10;;;;;;;3.40;1.13;;;;;;;10.94;58.37;99864.81;8252238;28;20069;-76
2022/04/10 08:48:13;;;;;;;3.55;1.08;;;;;;;11.09;55.80;99864.84;8286195;28;20074;-76
2022/04/10 08:52:16;;;;;;;2.20;0.90;;;;;;;11.34;56.57;99858.81;8259547;28;20129;-76
2022/04/10 08:56:18;;;;;;;1.70;1.10;;;;;;;11.60;55.90;99869.19;8266164;28;20090;-75
2022/04/10 09:00:22;;;;;;;1.58;1.00;;;;;;;11.65;52.85;99856.16;8248955;28;20081;-75
2022/04/10 09:04:24;;;;;;;1.58;1.02;;;;;;;11.86;53.02;99852.72;8271234;28;20137;-75
2022/04/10 09:08:25;;;;;;;1.17;0.70;;;;;;;11.97;52.06;99862.22;8268879;28;20073;-75
2022/04/10 09:12:27;;;;;;;2.65;0.80;;;;;;;12.08;51.10;99860.47;8269368;28;20041;-75
2022/04/10 09:16:28;;;;;;;3.97;0.88;;;;;;;12.22;51.42;99863.03;8260254;28;20510;-75
2022/04/10 09:20:29;;;;;;;2.35;0.88;;;;;;;12.56;51.94;99858.50;8251131;28;20042;-74
2022/04/10 09:24:31;;;;;;;1.73;0.90;;;;;;;12.74;50.74;99852.34;8264869;28;20450;-75
2022/04/10 09:28:46;;;;;;;2.55;1.38;;;;;;;12.44;50.52;99868.16;8250730;28;20049;-75
2022/04/10 09:32:53;;;;;;;3.30;1.08;;;;;;;11.92;51.48;99863.97;8261678;28;20052;-75
2022/04/10 09:37:03;;;;;;;3.50;0.77;;;;;;;11.59;51.83;99858.78;8277071;28;20076;-75
2022/04/10 09:41:13;;;;;;;1.27;0.85;;;;;;;11.48;50.65;99851.84;8283707;28;20060;-75
2022/04/10 09:45:40;;;;;;;1.42;0.85;;;;;;;11.59;50.41;99854.44;8254927;28;20042;-75
2022/04/10 09:49:43;;;;;;;4.82;1.10;;;;;;;11.47;49.30;99854.44;8280285;28;20431;-75
2022/04/10 09:54:02;;;;;;;1.77;0.70;;;;;;;11.24;49.37;99856.19;8276705;28;20073;-74
2022/04/10 09:58:13;;;;;;;2.58;0.90;;;;;;;11.25;49.77;99853.59;8295098;28;20505;-75
2022/04/10 10:02:23;;;;;;;2.83;0.60;;;;;;;11.26;48.05;99862.25;8273964;28;20049;-74
2022/04/10 10:06:25;;;;;;;1.77;0.80;;;;;;;11.27;50.44;99858.78;8283468;28;20147;-74
2022/04/10 10:10:32;;;;;;;1.55;0.57;;;;;;;11.23;50.80;99850.13;8272022;28;20144;-73
2022/04/10 10:14:35;;;;;;;2.33;0.82;;;;;;;11.50;51.34;99850.13;8266080;28;20731;-73
2022/04/10 10:18:39;;;;;;;0.98;0.70;;;;;;;11.91;49.99;99845.75;8252784;28;20093;-73
2022/04/10 10:22:41;;;;;;;1.67;0.88;;;;;;;12.33;49.09;99844.75;8284687;28;20052;-74
2022/04/10 10:27:10;;;;;;;1.63;0.75;;;;;;;12.78;45.81;99837.56;8260598;28;20045;-73
2022/04/10 10:31:31;;;;;;;1.63;0.80;;;;;;;12.89;43.34;99834.00;8259490;28;20095;-73
2022/04/10 10:35:34;;;;;;;10.05;2.45;;;;;;;12.81;44.64;99828.00;8270597;28;20064;-73
2022/04/10 10:39:46;;;;;;;1.00;0.65;;;;;;;13.21;45.37;99828.59;8278459;28;20124;-74
2022/04/10 10:43:48;;;;;;;3.58;0.70;;;;;;;13.37;44.88;99823.25;8275451;28;20141;-74
2022/04/10 10:48:02;;;;;;;2.15;0.70;;;;;;;13.55;45.52;99821.34;8263615;28;20596;-74
2022/04/10 10:52:11;;;;;;;1.25;0.60;;;;;;;13.21;44.72;99822.50;8277463;28;20050;-74
2022/04/10 10:56:20;;;;;;;2.50;0.60;;;;;;;12.81;43.82;99819.31;8271194;28;20966;-74
2022/04/10 11:00:45;;;;;;;2.30;0.65;;;;;;;12.18;42.88;99816.16;8268853;28;20041;-73
2022/04/10 11:04:50;;;;;;;1.42;0.80;;;;;;;11.88;45.14;99809.34;8291936;28;20041;-73
2022/04/10 11:08:52;;;;;;;2.20;0.60;;;;;;;11.70;44.26;99810.22;8297208;28;20160;-73
2022/04/10 11:12:58;;;;;;;1.83;0.80;;;;;;;11.50;44.21;99810.25;8290439;28;20080;-73
2022/04/10 11:17:17;;;;;;;0.70;0.57;;;;;;;11.46;44.75;99803.31;8287414;28;20081;-72
2022/04/10 11:21:21;;;;;;;1.20;0.60;;;;;;;11.87;43.27;99799.81;8277236;28;20055;-72
2022/04/10 11:25:28;;;;;;;2.08;0.65;;;;;;;12.36;42.73;99787.44;8274092;28;20041;-73
2022/04/10 11:29:31;;;;;;;2.03;0.50;;;;;;;12.96;42.83;99791.41;8299291;28;20501;-73
2022/04/10 11:33:52;;;;;;;3.88;0.80;;;;;;;13.13;40.32;99791.28;8290730;28;20058;-73
2022/04/10 11:38:21;;;;;;;1.98;0.60;;;;;;;12.90;36.87;99790.56;8287103;28;20049;-72
2022/04/10 11:42:23;;;;;;;1.33;0.43;;;;;;;12.52;38.34;99793.44;8284606;28;20057;-72
2022/04/10 11:46:26;;;;;;;1.25;0.47;;;;;;;12.48;39.47;99794.31;8273421;28;20077;-73
2022/04/10 11:50:29;;;;;;;1.27;0.50;;;;;;;12.34;39.95;99787.44;8296635;28;20045;-73
2022/04/10 11:54:33;;;;;;;0.70;0.50;;;;;;;12.24;42.04;99779.72;8289120;28;20041;-73
2022/04/10 11:58:36;;;;;;;1.75;0.55;;;;;;;12.12;42.05;99785.81;8296433;28;20765;-73
2022/04/10 12:02:38;;;;;;;1.65;0.50;;;;;;;11.81;41.83;99787.66;8282008;28;20049;-72
2022/04/10 12:06:40;;;;;;;1.13;0.40;;;;;;;11.75;42.33;99785.06;8286665;28;20424;-72
2022/04/10 12:10:51;;;;;;;1.27;0.50;;;;;;;11.73;42.33;99781.59;8286694;28;20518;-72
2022/04/10 12:14:53;;;;;;;2.40;0.50;;;;;;;11.73;41.03;99776.41;8288205;28;20081;-72
2022/04/10 12:18:56;;;;;;;0.80;0.40;;;;;;;12.13;44.25;99781.47;8264385;28;20782;-73
2022/04/10 12:22:58;;;;;;;1.80;0.60;;;;;;;12.95;43.65;99773.16;8270336;28;20100;-72
2022/04/10 12:27:03;;;;;;;1.08;0.55;;;;;;;13.32;39.38;99771.13;8289777;28;20108;-72
2022/04/10 12:31:06;;;;;;;2.28;0.60;;;;;;;13.83;41.34;99761.03;8282780;28;20451;-72
2022/04/10 12:35:09;;;;;;;;;;;;;;;13.75;37.47;99760.25;8287415;28;20802;-73
2022/04/10 12:39:10;;;;;;;;;;;;;;;13.54;39.64;99761.34;8288774;28;20522;-73
2022/04/10 12:43:12;;;;;;;1.40;0.40;;;;;;;13.35;38.10;99758.06;8285786;28;20481;-72
2022/04/10 12:47:47;;;;;;;1.73;0.45;;;;;;;13.40;37.63;99765.84;8280302;28;20089;-73
2022/04/10 12:52:03;;;;;;;2.50;0.60;;;;;;;13.95;38.35;99760.00;8284260;28;20498;-73
2022/04/10 12:56:18;;;;;;;1.77;0.50;;;;;;;14.01;37.24;99762.56;8253058;28;20048;-73
2022/04/10 13:00:24;;;;;;;0.95;0.52;;;;;;;14.48;38.23;99762.81;8283114;28;20480;-72
2022/04/10 13:04:32;;;;;;;1.63;0.40;;;;;;;14.72;37.23;99760.72;8283701;28;20779;-73
2022/04/10 13:08:35;;;;;;;1.13;0.60;;;;;;;14.66;35.77;99756.44;8284908;28;20451;-73
2022/04/10 13:12:39;;;;;;;4.03;0.60;;;;;;;14.44;36.91;99760.28;8264997;28;20038;-73
2022/04/10 13:16:42;;;;;;;1.65;0.40;;;;;;;14.27;38.04;99755.25;8283615;28;20141;-72
2022/04/10 13:20:43;;;;;;;2.47;0.50;;;;;;;14.18;36.22;99752.75;8266904;28;20149;-72
2022/04/10 13:24:45;;;;;;;1.30;0.50;;;;;;;14.16;36.55;99754.50;8267393;28;20053;-73
2022/04/10 13:28:46;;;;;;;1.52;0.60;;;;;;;13.99;35.78;99748.63;8269268;28;20044;-72
2022/04/10 13:32:48;;;;;;;3.80;0.50;;;;;;;13.83;36.16;99742.78;8292522;28;20674;-72
2022/04/10 13:36:49;;;;;;;0.60;0.37;;;;;;;13.58;36.75;99739.56;8288230;28;20054;-72
2022/04/10 13:40:51;;;;;;;1.83;0.45;;;;;;;13.43;37.61;99734.50;8284819;28;20049;-72
2022/04/10 13:44:53;;;;;;;1.48;0.50;;;;;;;13.18;37.18;99733.88;8285556;28;20053;-73
2022/04/10 13:48:54;;;;;;;0.90;0.37;;;;;;;12.86;36.35;99732.41;8278502;28;20151;-73
2022/04/10 13:52:56;;;;;;;1.50;0.32;;;;;;;12.83;37.71;99719.38;8276878;28;20050;-73
2022/04/10 13:56:57;;;;;;;0.43;0.40;;;;;;;12.75;38.11;99718.59;8298128;28;20052;-73
2022/04/10 14:00:59;;;;;;;1.67;0.50;;;;;;;12.76;39.11;99712.50;8287823;28;20837;-75
2022/04/10 14:05:01;;;;;;;;;;;;;;;12.58;37.25;99712.66;8267585;28;20046;-73
2022/04/10 14:09:03;;;;;;;1.65;0.40;;;;;;;12.58;39.74;99703.09;8282378;28;19971;-74
2022/04/10 14:13:04;;;;;;;1.03;0.40;;;;;;;12.54;37.79;99711.78;8281936;28;20103;-73
2022/04/10 14:17:06;;;;;;;1.90;0.40;;;;;;;12.46;39.32;99703.19;8280327;28;20343;-73
2022/04/10 14:21:08;;;;;;;1.30;0.47;;;;;;;12.44;41.45;99699.72;8283293;28;20401;-73
2022/04/10 14:25:09;;;;;;;1.65;0.40;;;;;;;12.40;40.86;99690.22;8286145;28;20038;-72
2022/04/10 14:29:11;;;;;;;1.00;0.40;;;;;;;12.40;40.89;99682.41;8281594;28;20418;-72
2022/04/10 14:33:13;;;;;;;1.30;0.30;;;;;;;12.49;40.61;99682.31;8289641;28;20671;-73
2022/04/10 14:37:14;;;;;;;1.48;0.30;;;;;;;13.05;40.34;99672.28;8282524;28;20041;-73
2022/04/10 14:41:17;;;;;;;1.27;0.38;;;;;;;13.69;38.62;99672.47;8282462;28;20054;-73
2022/04/10 14:45:19;;;;;;;0.98;0.50;;;;;;;13.73;36.64;99668.06;8262150;28;20272;-73
2022/04/10 14:49:20;;;;;;;0.60;0.40;;;;;;;13.58;36.47;99669.13;8281415;28;20087;-73
2022/04/10 14:53:22;;;;;;;0.57;0.40;;;;;;;13.53;36.83;99668.31;8264121;28;20069;-73
2022/04/10 14:57:23;;;;;;;1.55;0.40;;;;;;;13.36;35.93;99665.03;8283781;28;20276;-73
2022/04/10 15:01:28;;;;;;;1.45;0.35;;;;;;;13.22;35.69;99670.41;8281589;28;20645;-73
2022/04/10 15:05:30;;;;;;;0.65;0.40;;;;;;;13.28;37.92;99681.66;8270420;28;20042;-73
2022/04/10 15:09:32;;;;;;;0.70;0.33;;;;;;;13.55;37.18;99676.97;8283013;28;20506;-73
2022/04/10 15:13:35;;;;;;;0.98;0.30;;;;;;;13.50;37.27;99674.44;8283073;28;20052;-73
2022/04/10 15:17:37;;;;;;;3.33;0.40;;;;;;;13.28;38.27;99680.75;8282113;28;20088;-73
2022/04/10 15:21:39;;;;;;;1.77;0.80;;;;;;;13.14;37.88;99669.59;8282289;28;20049;-73
2022/04/10 15:25:40;;;;;;;2.20;1.13;;;;;;;12.99;38.43;99666.25;8282548;28;20093;-73
2022/04/10 15:29:42;;;;;;;1.73;0.60;;;;;;;13.00;39.05;99675.78;8279962;28;20046;-73
2022/04/10 15:33:44;;;;;;;0.95;0.40;;;;;;;13.00;40.24;99662.75;8278229;28;20050;-73
2022/04/10 15:37:46;;;;;;;1.20;0.50;;;;;;;12.96;39.68;99665.44;8279573;28;20049;-73
2022/04/10 15:41:49;;;;;;;1.27;0.50;;;;;;;12.85;40.60;99656.84;8293714;28;20048;-73
2022/04/10 15:45:50;;;;;;;1.02;0.50;;;;;;;12.77;40.46;99656.06;8286815;28;20170;-71
2022/04/10 15:49:53;;;;;;;1.48;0.65;;;;;;;12.62;40.09;99657.03;8295366;28;20045;-73
2022/04/10 15:53:55;;;;;;;1.27;0.75;;;;;;;12.48;40.53;99657.16;8290070;28;20501;-72
2022/04/10 15:57:57;;;;;;;2.53;0.50;;;;;;;12.36;41.43;99660.69;8299856;28;20073;-72
2022/04/10 16:01:59;;;;;;;1.58;0.60;;;;;;;12.19;40.75;99654.75;8276193;28;20279;-72
2022/04/10 16:06:01;;;;;;;1.58;0.50;;;;;;;12.10;41.35;99657.44;8291508;28;20041;-73
2022/04/10 16:10:04;;;;;;;1.30;0.40;;;;;;;12.00;41.77;99651.41;8292769;28;20060;-73
2022/04/10 16:14:05;;;;;;;1.15;0.40;;;;;;;11.92;42.00;99657.53;8284490;28;20042;-72
2022/04/10 16:18:08;;;;;;;1.35;0.60;;;;;;;11.81;42.78;99654.97;8292718;28;20064;-72
2022/04/10 16:22:09;;;;;;;2.60;0.70;;;;;;;11.73;44.24;99659.34;8276790;28;20038;-71
2022/04/10 16:26:10;;;;;;;4.45;0.80;;;;;;;11.68;44.14;99656.75;8292261;28;20037;-71
2022/04/10 16:30:15;;;;;;;0.45;0.40;;;;;;;11.60;43.03;99658.50;8275915;28;20136;-71
2022/04/10 16:34:19;;;;;;;3.08;0.63;;;;;;;11.55;43.37;99656.81;8268325;28;20046;-71
2022/04/10 16:38:22;;;;;;;1.30;0.47;;;;;;;11.52;42.18;99657.69;8268968;28;20054;-71
2022/04/10 16:42:26;;;;;;;2.83;0.60;;;;;;;12.17;40.80;99651.28;8271480;28;20042;-71
2022/04/10 16:46:28;;;;;;;0.68;0.40;;;;;;;12.63;40.51;99651.81;8265362;28;20365;-71
2022/04/10 16:50:33;;;;;;;0.90;0.40;;;;;;;12.59;41.43;99652.72;8267365;28;20053;-71
2022/04/10 16:54:47;;;;;;;3.10;0.68;;;;;;;12.33;40.52;99652.06;8269122;28;20060;-71
2022/04/10 16:58:50;;;;;;;17.30;1.20;;;;;;;12.03;41.84;99655.75;8268638;28;20065;-71
2022/04/10 17:02:52;;;;;;;;;;;;;;;11.86;42.42;99647.16;8263720;28;20069;-71
2022/04/10 17:06:54;;;;;;;2.50;0.93;;;;;;;11.68;42.91;99645.50;8267340;28;20230;-71
2022/04/10 17:10:56;;;;;;;2.67;0.60;;;;;;;11.52;43.89;99642.09;8266471;28;20861;-71
2022/04/10 17:15:00;;;;;;;2.40;0.60;;;;;;;11.39;42.83;99638.66;8265015;28;20830;-71
2022/04/10 17:19:02;;;;;;;2.92;0.75;;;;;;;11.25;43.08;99642.19;8261515;28;20058;-71
2022/04/10 17:23:03;;;;;;;1.63;0.57;;;;;;;11.14;44.58;99639.63;8265457;28;20133;-71
2022/04/10 17:27:06;;;;;;;2.77;0.50;;;;;;;11.03;43.21;99641.38;8266202;28;20441;-71
2022/04/10 17:31:10;;;;;;;1.20;0.70;;;;;;;10.95;46.24;99633.63;8262393;28;20058;-71
2022/04/10 17:35:12;;;;;;;1.80;0.63;;;;;;;10.85;46.83;99634.47;8251007;28;20050;-71
2022/04/10 17:39:14;;;;;;;2.80;0.60;;;;;;;10.67;45.67;99637.09;8265439;28;20100;-72
2022/04/10 17:43:16;;;;;;;0.68;0.40;;;;;;;10.54;45.80;99641.44;8265118;28;20447;-71
2022/04/10 17:47:17;;;;;;;0.70;0.45;;;;;;;10.30;45.18;99637.09;8262338;28;20057;-71
2022/04/10 17:51:19;;;;;;;0.98;0.50;;;;;;;10.13;48.23;99637.06;8265997;28;20052;-72
2022/04/10 17:55:20;;;;;;;2.55;0.40;;;;;;;9.99;50.76;99630.97;8248423;28;20144;-71
2022/04/10 17:59:24;;;;;;;3.40;1.85;;;;;;;9.76;52.80;99630.94;8264212;28;20114;-72
2022/04/10 18:03:26;;;;;;;6.13;2.15;;;;;;;9.52;52.80;99623.09;8267085;28;20053;-72
2022/04/10 18:07:28;;;;;;;2.25;0.80;;;;;;;9.32;55.14;99635.94;8271165;28;20049;-72
2022/04/10 18:11:30;;;;;;;2.05;0.70;;;;;;;9.09;56.49;99636.69;8257410;28;20124;-72
2022/04/10 18:15:32;;;;;;;7.30;0.50;;;;;;;8.88;55.71;99628.81;8275996;28;20627;-72
2022/04/10 18:19:38;;;;;;;1.95;0.93;;;;;;;8.72;56.13;99634.75;8283944;28;20512;-72
2022/04/10 18:23:40;;;;;;;3.75;0.70;;;;;;;8.53;54.78;99627.72;8264381;28;20104;-72
2022/04/10 18:27:42;;;;;;;2.50;0.45;;;;;;;8.35;57.11;99634.47;8284589;28;20042;-72
2022/04/10 18:31:43;;;;;;;0.70;0.40;;;;;;;8.11;59.94;99642.00;8281057;28;20115;-72
2022/04/10 18:35:44;;;;;;;1.15;0.50;;;;;;;7.79;60.57;99636.47;8280046;28;20047;-72
2022/04/10 18:39:46;;;;;;;3.10;0.80;;;;;;;7.56;60.84;99638.81;8283826;28;20077;-72
2022/04/10 18:43:48;;;;;;;1.10;0.50;;;;;;;7.45;61.97;99638.69;8303008;28;20052;-71
2022/04/10 18:47:51;;;;;;;1.63;0.47;;;;;;;7.27;63.22;99641.03;8282908;28;20064;-71
2022/04/10 18:51:53;;;;;;;2.07;0.60;;;;;;;7.12;64.06;99641.69;8281271;28;20065;-72
2022/04/10 18:55:55;;;;;;;1.00;0.50;;;;;;;6.96;64.03;99642.34;8282888;28;20140;-72
2022/04/10 18:59:56;;;;;;;4.17;0.90;;;;;;;6.88;64.60;99654.28;8263107;28;20080;-72
2022/04/10 19:03:57;;;;;;;6.93;1.50;;;;;;;6.71;66.37;99655.75;8281978;28;20056;-73
2022/04/10 19:07:59;;;;;;;3.43;0.40;;;;;;;6.50;67.06;99662.31;8292473;28;20077;-72
2022/04/10 19:12:01;;;;;;;0.93;0.37;;;;;;;6.39;68.08;99668.97;8280173;28;20038;-72
2022/04/10 19:16:03;;;;;;;7.05;0.40;;;;;;;6.25;67.57;99667.88;8264428;28;20050;-72
2022/04/10 19:20:05;;;;;;;0.67;0.50;;;;;;;6.11;69.12;99662.50;8270809;28;20049;-72